createdAt,value
2018-03-28T00:00:08.551Z,61.70
2018-03-28T00:02:35.172Z,61.80
2018-03-28T00:05:02.244Z,61.80
2018-03-28T00:07:28.998Z,61.80
2018-03-28T00:09:55.655Z,62.00
2018-03-28T00:12:22.383Z,62.20
2018-03-28T00:14:49.034Z,62.10
2018-03-28T00:17:28.138Z,62.10
2018-03-28T00:19:54.859Z,62.10
2018-03-28T00:22:21.542Z,62.00
2018-03-28T00:24:48.246Z,62.10
2018-03-28T00:27:14.901Z,62.00
2018-03-28T00:29:46.482Z,62.00
2018-03-28T00:32:13.102Z,62.10
2018-03-28T00:37:22.630Z,62.20
2018-03-28T00:42:28.360Z,62.10
2018-03-28T00:44:55.451Z,62.20
2018-03-28T00:47:22.188Z,62.10
2018-03-28T00:49:48.812Z,62.30
2018-03-28T00:52:15.434Z,62.20
2018-03-28T00:54:52.138Z,62.30
2018-03-28T00:57:18.758Z,62.50
2018-03-28T01:02:31.832Z,62.40
2018-03-28T01:04:58.871Z,62.30
2018-03-28T01:07:25.741Z,62.50
2018-03-28T01:09:53.152Z,62.50
2018-03-28T01:12:19.796Z,62.50
2018-03-28T01:14:46.530Z,62.60
2018-03-28T01:17:13.197Z,62.70
2018-03-28T01:19:39.939Z,62.60
2018-03-28T01:22:06.577Z,62.70
2018-03-28T01:24:33.305Z,62.80
2018-03-28T01:27:00.036Z,62.60
2018-03-28T01:29:26.773Z,62.70
2018-03-28T01:31:58.601Z,62.60
2018-03-28T01:34:25.259Z,62.60
2018-03-28T01:36:52.285Z,62.80
2018-03-28T01:39:22.649Z,62.90
2018-03-28T01:41:49.378Z,63.00
2018-03-28T01:44:16.425Z,62.90
2018-03-28T01:49:22.522Z,63.10
2018-03-28T01:51:49.138Z,63.10
2018-03-28T01:54:16.195Z,63.10
2018-03-28T01:56:42.826Z,63.10
2018-03-28T01:59:09.488Z,63.10
2018-03-28T02:01:36.257Z,63.10
2018-03-28T02:04:10.223Z,63.50
2018-03-28T02:06:36.854Z,63.80
2018-03-28T02:09:03.538Z,63.90
2018-03-28T02:11:33.357Z,63.70
2018-03-28T02:14:00.050Z,63.80
2018-03-28T02:16:26.686Z,64.10
2018-03-28T02:18:53.332Z,64.10
2018-03-28T02:21:20.062Z,63.80
2018-03-28T02:26:28.552Z,64.40
2018-03-28T02:31:34.973Z,65.00
2018-03-28T02:34:01.635Z,64.80
2018-03-28T02:39:10.611Z,64.80
2018-03-28T02:44:17.102Z,64.80
2018-03-28T02:46:46.559Z,65.00
2018-03-28T02:49:13.318Z,64.80
2018-03-28T02:51:39.962Z,64.60
2018-03-28T02:54:07.038Z,64.60
2018-03-28T02:56:33.714Z,64.60
2018-03-28T02:59:00.349Z,64.60
2018-03-28T03:01:34.189Z,64.60
2018-03-28T03:04:00.900Z,65.10
2018-03-28T03:09:06.687Z,64.80
2018-03-28T03:11:33.424Z,64.70
2018-03-28T03:14:00.047Z,64.90
2018-03-28T03:16:26.662Z,65.00
2018-03-28T03:18:53.754Z,65.00
2018-03-28T03:21:20.386Z,65.10
2018-03-28T03:23:47.011Z,65.90
2018-03-28T03:26:13.797Z,65.40
2018-03-28T03:28:40.424Z,65.80
2018-03-28T03:31:07.059Z,65.30
2018-03-28T03:33:33.678Z,65.10
2018-03-28T03:36:00.746Z,65.30
2018-03-28T03:43:45.824Z,65.60
2018-03-28T03:46:12.473Z,65.70
2018-03-28T03:48:46.184Z,66.10
2018-03-28T03:53:51.222Z,65.80
2018-03-28T03:56:18.290Z,65.70
2018-03-28T03:58:45.053Z,65.90
2018-03-28T04:01:11.733Z,65.90
2018-03-28T04:03:38.382Z,65.70
2018-03-28T04:06:05.009Z,65.70
2018-03-28T04:08:31.780Z,65.70
2018-03-28T04:10:58.399Z,65.80
2018-03-28T04:18:43.499Z,66.00
2018-03-28T04:21:11.702Z,65.90
2018-03-28T04:23:39.097Z,66.00
2018-03-28T04:26:05.772Z,66.20
2018-03-28T04:28:32.615Z,66.10
2018-03-28T04:30:59.247Z,66.20
2018-03-28T04:33:26.006Z,66.00
2018-03-28T04:35:53.128Z,65.90
2018-03-28T04:38:20.171Z,66.10
2018-03-28T04:40:46.821Z,66.20
2018-03-28T04:43:13.458Z,66.10
2018-03-28T04:45:40.099Z,66.00
2018-03-28T04:48:06.747Z,66.20
2018-03-28T04:50:33.526Z,66.10
2018-03-28T04:53:04.763Z,66.10
2018-03-28T04:55:31.384Z,66.00
2018-03-28T04:57:58.108Z,65.90
2018-03-28T05:00:24.841Z,66.10
2018-03-28T05:02:52.119Z,66.10
2018-03-28T05:07:57.995Z,66.20
2018-03-28T05:15:42.818Z,66.90
2018-03-28T05:18:09.850Z,66.70
2018-03-28T05:20:36.601Z,66.70
2018-03-28T05:23:03.228Z,66.80
2018-03-28T05:25:29.857Z,67.00
2018-03-28T05:27:56.975Z,67.00
2018-03-28T05:30:23.714Z,66.90
2018-03-28T05:32:50.358Z,66.90
2018-03-28T05:40:34.726Z,67.00
2018-03-28T05:43:01.341Z,66.80
2018-03-28T05:45:27.968Z,66.90
2018-03-28T05:47:54.660Z,67.10
2018-03-28T05:50:21.487Z,67.10
2018-03-28T05:52:48.132Z,67.00
2018-03-28T05:55:14.782Z,66.80
2018-03-28T05:57:41.838Z,66.70
2018-03-28T06:02:47.400Z,66.80
2018-03-28T06:05:16.677Z,67.40
2018-03-28T06:07:43.359Z,67.20
2018-03-28T06:10:22.369Z,66.90
2018-03-28T06:12:49.013Z,67.30
2018-03-28T06:15:15.725Z,67.10
2018-03-28T06:17:46.663Z,67.60
2018-03-28T06:20:13.786Z,67.30
2018-03-28T06:22:40.464Z,67.60
2018-03-28T06:27:46.680Z,67.50
2018-03-28T06:30:13.311Z,67.40
2018-03-28T06:35:18.962Z,67.50
2018-03-28T06:37:45.597Z,67.70
2018-03-28T06:40:12.274Z,67.60
2018-03-28T06:42:46.452Z,67.80
2018-03-28T06:45:13.169Z,67.60
2018-03-28T06:47:39.806Z,67.30
2018-03-28T06:52:46.761Z,67.60
2018-03-28T06:55:16.682Z,67.30
2018-03-28T06:57:43.303Z,67.50
2018-03-28T07:00:16.405Z,67.10
2018-03-28T07:05:21.703Z,67.80
2018-03-28T07:10:27.843Z,68.20
2018-03-28T07:12:54.521Z,67.80
2018-03-28T07:15:21.294Z,67.60
2018-03-28T07:17:47.916Z,67.90
2018-03-28T07:20:14.681Z,67.90
2018-03-28T07:22:41.415Z,68.00
2018-03-28T07:25:08.559Z,67.60
2018-03-28T07:30:14.709Z,67.70
2018-03-28T07:32:41.332Z,67.50
2018-03-28T07:35:16.299Z,67.70
2018-03-28T07:37:42.914Z,67.70
2018-03-28T07:40:09.549Z,67.60
2018-03-28T07:42:36.187Z,67.90
2018-03-28T07:45:02.818Z,67.80
2018-03-28T07:47:29.474Z,67.80
2018-03-28T07:49:56.144Z,67.60
2018-03-28T07:55:02.187Z,67.90
2018-03-28T07:57:29.214Z,67.80
2018-03-28T08:05:12.843Z,67.70
2018-03-28T08:12:57.753Z,67.60
2018-03-28T08:20:43.069Z,67.70
2018-03-28T08:23:09.802Z,67.70
2018-03-28T08:25:36.493Z,67.90
2018-03-28T08:28:03.233Z,68.00
2018-03-28T08:30:29.860Z,68.20
2018-03-28T08:32:56.489Z,68.40
2018-03-28T08:35:23.156Z,68.40
2018-03-28T08:37:49.904Z,68.30
2018-03-28T08:40:16.753Z,68.20
2018-03-28T08:45:22.790Z,67.80
2018-03-28T08:53:07.467Z,68.10
2018-03-28T08:55:34.482Z,68.20
2018-03-28T08:58:01.180Z,68.30
2018-03-28T09:00:27.865Z,68.20
2018-03-28T09:02:54.479Z,68.40
2018-03-28T09:05:21.099Z,68.00
2018-03-28T09:07:47.838Z,68.30
2018-03-28T09:10:14.879Z,68.30
2018-03-28T09:12:41.521Z,68.20
2018-03-28T09:15:08.258Z,68.40
2018-03-28T09:20:14.330Z,68.30
2018-03-28T09:22:40.960Z,68.40
2018-03-28T09:25:13.860Z,68.40
2018-03-28T09:27:40.478Z,68.50
2018-03-28T09:30:10.796Z,68.70
2018-03-28T09:35:16.857Z,68.30
2018-03-28T09:37:43.481Z,68.50
2018-03-28T09:40:10.106Z,68.40
2018-03-28T09:42:36.816Z,68.40
2018-03-28T09:45:03.556Z,68.70
2018-03-28T09:47:30.194Z,68.50
2018-03-28T09:50:04.627Z,68.60
2018-03-28T09:55:10.692Z,68.40
2018-03-28T09:57:37.345Z,68.40
2018-03-28T10:00:03.992Z,68.50
2018-03-28T10:02:50.775Z,68.50
2018-03-28T10:05:17.575Z,68.20
2018-03-28T10:07:44.230Z,68.00
2018-03-28T10:10:10.990Z,68.10
2018-03-28T10:12:37.746Z,68.20
2018-03-28T10:20:24.786Z,68.40
2018-03-28T10:22:51.521Z,68.30
2018-03-28T10:25:20.517Z,68.30
2018-03-28T10:27:47.256Z,68.80
2018-03-28T10:30:14.028Z,68.40
2018-03-28T10:32:40.802Z,68.30
2018-03-28T10:37:46.423Z,68.40
2018-03-28T10:40:13.154Z,68.50
2018-03-28T10:42:39.788Z,68.50
2018-03-28T10:45:06.821Z,68.30
2018-03-28T10:47:33.830Z,68.40
2018-03-28T10:50:00.538Z,68.50
2018-03-28T10:52:27.594Z,68.40
2018-03-28T10:57:34.998Z,68.10
2018-03-28T11:00:04.993Z,67.90
2018-03-28T11:02:31.737Z,68.20
2018-03-28T11:04:58.822Z,68.40
2018-03-28T11:07:25.439Z,68.30
2018-03-28T11:09:52.182Z,68.30
2018-03-28T11:12:22.999Z,68.20
2018-03-28T11:14:50.529Z,68.00
2018-03-28T11:19:55.965Z,68.10
2018-03-28T11:22:22.658Z,68.20
2018-03-28T11:24:49.285Z,68.20
2018-03-28T11:27:16.026Z,68.20
2018-03-28T11:29:42.779Z,68.40
2018-03-28T11:32:09.494Z,68.40
2018-03-28T11:37:15.006Z,68.40
2018-03-28T11:39:41.636Z,68.20
2018-03-28T11:42:16.459Z,68.00
2018-03-28T11:47:22.562Z,67.80
2018-03-28T11:49:52.921Z,67.70
2018-03-28T11:54:58.609Z,67.70
2018-03-28T11:57:25.244Z,67.80
2018-03-28T11:59:51.974Z,67.60
2018-03-28T12:02:18.650Z,67.60
2018-03-28T12:04:45.377Z,67.60
2018-03-28T12:07:12.522Z,67.50
2018-03-28T12:09:39.151Z,67.70
2018-03-28T12:12:05.797Z,67.70
2018-03-28T12:14:35.100Z,67.80
2018-03-28T12:17:02.673Z,68.10
2018-03-28T12:19:29.705Z,68.00
2018-03-28T12:21:56.453Z,68.20
2018-03-28T12:24:23.096Z,68.00
2018-03-28T12:26:49.753Z,68.00
2018-03-28T12:29:16.453Z,68.30
2018-03-28T12:31:43.127Z,68.60
2018-03-28T12:34:09.836Z,68.40
2018-03-28T12:36:36.470Z,68.70
2018-03-28T12:39:03.120Z,68.30
2018-03-28T12:44:09.082Z,68.40
2018-03-28T12:46:35.739Z,68.00
2018-03-28T12:49:02.376Z,68.00
2018-03-28T12:51:29.169Z,67.90
2018-03-28T12:53:55.879Z,67.90
2018-03-28T12:56:22.524Z,67.80
2018-03-28T12:58:49.190Z,67.80
2018-03-28T13:01:22.610Z,67.80
2018-03-28T13:03:49.257Z,67.80
2018-03-28T13:06:16.004Z,67.80
2018-03-28T13:08:46.964Z,67.70
2018-03-28T13:14:04.264Z,67.70
2018-03-28T13:16:31.000Z,67.70
2018-03-28T13:18:58.892Z,67.60
2018-03-28T13:24:05.193Z,67.60
2018-03-28T13:29:10.855Z,67.50
2018-03-28T13:34:16.772Z,67.50
2018-03-28T13:36:43.839Z,67.60
2018-03-28T13:39:10.483Z,67.60
2018-03-28T13:41:37.110Z,67.50
2018-03-28T13:44:03.741Z,67.50
2018-03-28T13:46:30.763Z,67.60
2018-03-28T13:48:57.786Z,67.50
2018-03-28T13:51:24.897Z,67.40
2018-03-28T13:53:52.895Z,67.40
2018-03-28T13:58:58.979Z,67.40
2018-03-28T14:01:25.708Z,67.40
2018-03-28T14:03:58.675Z,67.50
2018-03-28T14:06:34.560Z,67.50
2018-03-28T14:09:01.597Z,67.50
2018-03-28T14:11:34.777Z,67.50
2018-03-28T14:16:39.929Z,67.70
2018-03-28T14:19:06.607Z,67.60
2018-03-28T14:24:12.828Z,67.60
2018-03-28T14:26:39.474Z,67.50
2018-03-28T14:29:06.211Z,67.90
2018-03-28T14:34:11.734Z,67.60
2018-03-28T14:39:23.121Z,67.60
2018-03-28T14:44:28.829Z,67.90
2018-03-28T14:49:34.304Z,67.70
2018-03-28T14:52:01.571Z,67.70
2018-03-28T14:54:28.189Z,67.60
2018-03-28T14:59:34.080Z,67.60
2018-03-28T15:02:00.831Z,67.60
2018-03-28T15:04:27.952Z,67.50
2018-03-28T15:09:34.160Z,67.40
2018-03-28T15:12:00.793Z,67.50
2018-03-28T15:14:27.818Z,67.50
2018-03-28T15:16:54.870Z,67.40
2018-03-28T15:19:21.500Z,67.50
2018-03-28T15:21:58.538Z,67.40
2018-03-28T15:24:25.202Z,67.40
2018-03-28T15:27:04.564Z,67.40
2018-03-28T15:29:31.304Z,67.40
2018-03-28T15:31:58.363Z,67.40
2018-03-28T15:34:25.117Z,67.40
2018-03-28T15:36:52.251Z,67.40
2018-03-28T15:39:18.883Z,67.50
2018-03-28T15:44:24.505Z,67.40
2018-03-28T15:46:51.202Z,67.30
2018-03-28T15:49:18.393Z,67.40
2018-03-28T15:51:45.081Z,67.40
2018-03-28T15:54:11.774Z,67.40
2018-03-28T15:59:28.556Z,67.30
2018-03-28T16:01:55.171Z,67.30
2018-03-28T16:07:01.247Z,67.30
2018-03-28T16:09:30.159Z,67.30
2018-03-28T16:11:56.871Z,67.40
2018-03-28T16:14:23.536Z,67.40
2018-03-28T16:16:53.146Z,67.50
2018-03-28T16:19:20.270Z,67.40
2018-03-28T16:21:47.293Z,67.50
2018-03-28T16:24:13.925Z,67.40
2018-03-28T16:26:41.019Z,67.30
2018-03-28T16:29:07.762Z,67.30
2018-03-28T16:31:34.394Z,67.40
2018-03-28T16:34:01.027Z,67.20
2018-03-28T16:36:27.742Z,67.30
2018-03-28T16:38:54.830Z,67.30
2018-03-28T16:41:23.021Z,67.30
2018-03-28T16:43:50.134Z,67.30
2018-03-28T16:46:17.182Z,67.20
2018-03-28T16:48:43.830Z,67.30
2018-03-28T16:51:10.462Z,67.20
2018-03-28T16:53:37.477Z,67.30
2018-03-28T17:06:38.029Z,67.10
2018-03-28T17:09:04.650Z,67.20
2018-03-28T17:11:34.063Z,67.20
2018-03-28T17:14:01.222Z,67.20
2018-03-28T17:16:28.246Z,67.30
2018-03-28T17:18:54.894Z,67.30
2018-03-28T17:21:21.518Z,67.30
2018-03-28T17:23:58.757Z,67.20
2018-03-28T17:26:25.397Z,67.30
2018-03-28T17:28:52.508Z,67.30
2018-03-28T17:34:10.775Z,67.30
2018-03-28T17:36:37.445Z,67.30
2018-03-28T17:39:04.075Z,67.30
2018-03-28T17:41:31.100Z,67.40
2018-03-28T17:43:57.835Z,67.50
2018-03-28T17:46:24.466Z,67.40
2018-03-28T17:48:53.066Z,67.50
2018-03-28T17:51:19.681Z,67.50
2018-03-28T17:53:46.327Z,67.50
2018-03-28T17:56:12.986Z,67.50
2018-03-28T17:58:39.695Z,67.50
2018-03-28T18:01:06.761Z,67.50
2018-03-28T18:03:33.488Z,67.60
2018-03-28T18:06:00.227Z,67.60
2018-03-28T18:08:26.842Z,67.60
2018-03-28T18:13:40.747Z,67.70
2018-03-28T18:16:07.363Z,67.60
2018-03-28T18:18:34.005Z,67.90
2018-03-28T18:21:00.736Z,68.30
2018-03-28T18:26:07.775Z,68.90
2018-03-28T18:28:34.477Z,68.90
2018-03-28T18:31:01.144Z,69.30
2018-03-28T18:33:27.759Z,68.90
2018-03-28T18:35:54.403Z,69.00
2018-03-28T18:38:21.030Z,69.20
2018-03-28T18:40:48.494Z,69.20
2018-03-28T18:43:15.506Z,69.10
2018-03-28T18:45:42.205Z,68.90
2018-03-28T18:48:16.795Z,69.40
2018-03-28T18:50:43.856Z,69.50
2018-03-28T18:53:10.478Z,69.40
2018-03-28T18:55:37.144Z,69.70
2018-03-28T18:58:16.797Z,69.60
2018-03-28T19:06:03.078Z,70.00
2018-03-28T19:08:30.110Z,69.70
2018-03-28T19:13:35.598Z,70.00
2018-03-28T19:16:02.954Z,70.20
2018-03-28T19:18:30.006Z,69.90
2018-03-28T19:23:35.906Z,71.40
2018-03-28T19:26:05.333Z,71.60
2018-03-28T19:31:11.522Z,70.90
2018-03-28T19:33:38.215Z,70.90
2018-03-28T19:38:44.147Z,70.20
2018-03-28T19:41:11.166Z,70.30
2018-03-28T19:43:38.258Z,70.00
2018-03-28T19:46:12.388Z,70.00
2018-03-28T19:48:39.167Z,69.80
2018-03-28T19:51:05.862Z,69.80
2018-03-28T19:53:32.497Z,69.60
2018-03-28T19:55:59.241Z,69.60
2018-03-28T20:01:04.253Z,69.40
2018-03-28T20:03:30.951Z,69.40
2018-03-28T20:05:57.584Z,69.30
2018-03-28T20:08:24.335Z,69.10
2018-03-28T20:10:58.741Z,69.10
2018-03-28T20:16:05.341Z,69.00
2018-03-28T20:18:35.351Z,68.90
2018-03-28T20:21:02.024Z,68.80
2018-03-28T20:23:28.645Z,68.90
2018-03-28T20:25:55.374Z,68.80
2018-03-28T20:28:22.415Z,68.80
2018-03-28T20:30:58.762Z,68.60
2018-03-28T20:33:25.787Z,68.70
2018-03-28T20:35:52.896Z,68.60
2018-03-28T20:41:03.893Z,68.50
2018-03-28T20:48:39.145Z,68.50
2018-03-28T20:51:05.891Z,68.30
2018-03-28T20:53:32.903Z,68.50
2018-03-28T20:58:38.046Z,68.30
2018-03-28T21:01:05.730Z,68.10
2018-03-28T21:03:33.211Z,68.30
2018-03-28T21:05:59.850Z,68.10
2018-03-28T21:08:26.494Z,67.90
2018-03-28T21:10:53.193Z,67.90
2018-03-28T21:13:23.254Z,67.50
2018-03-28T21:18:28.375Z,66.70
2018-03-28T21:20:55.418Z,67.10
2018-03-28T21:23:27.752Z,67.40
2018-03-28T21:25:54.428Z,67.10
2018-03-28T21:28:21.185Z,67.10
2018-03-28T21:30:48.204Z,67.20
2018-03-28T21:33:14.851Z,67.20
2018-03-28T21:38:21.304Z,66.80
2018-03-28T21:40:47.921Z,67.00
2018-03-28T21:43:22.902Z,66.60
2018-03-28T21:45:49.513Z,66.40
2018-03-28T21:48:16.180Z,66.40
2018-03-28T21:53:21.789Z,66.30
2018-03-28T21:55:54.029Z,66.00
2018-03-28T22:00:48.980Z,66.40
2018-03-28T22:03:15.610Z,66.40
2018-03-28T22:05:43.239Z,66.30
2018-03-28T22:08:16.767Z,66.00
2018-03-28T22:10:43.399Z,66.00
2018-03-28T22:13:10.025Z,66.00
2018-03-28T22:15:37.059Z,65.90
2018-03-28T22:18:03.698Z,65.90
2018-03-28T22:20:30.493Z,65.80
2018-03-28T22:22:59.231Z,65.60
2018-03-28T22:25:25.867Z,65.60
2018-03-28T22:27:52.874Z,65.60
2018-03-28T22:30:19.903Z,65.40
2018-03-28T22:32:52.946Z,65.80
2018-03-28T22:35:19.975Z,65.70
2018-03-28T22:37:46.993Z,65.50
2018-03-28T22:42:53.654Z,65.20
2018-03-28T22:50:46.818Z,65.50
2018-03-28T22:53:14.211Z,65.50
2018-03-28T22:55:40.923Z,65.60
2018-03-28T22:58:07.658Z,65.40
2018-03-28T23:00:34.390Z,65.30
2018-03-28T23:03:01.013Z,65.40
2018-03-28T23:05:27.637Z,65.30
2018-03-28T23:07:55.082Z,65.10
2018-03-28T23:10:22.098Z,65.20
2018-03-28T23:12:49.123Z,65.00
2018-03-28T23:15:15.866Z,65.10
2018-03-28T23:20:21.748Z,65.20
2018-03-28T23:22:48.510Z,65.00
2018-03-28T23:27:59.479Z,65.00
2018-03-28T23:30:26.446Z,65.00
2018-03-28T23:32:53.472Z,64.90
2018-03-28T23:37:58.814Z,64.70
2018-03-28T23:40:25.855Z,64.70
2018-03-28T23:42:58.854Z,64.80
2018-03-28T23:48:04.242Z,64.80
2018-03-28T23:50:31.374Z,64.70
2018-03-28T23:52:58.045Z,64.70
2018-03-28T23:55:24.741Z,64.90
2018-03-28T23:57:51.373Z,64.80
